Time;durP1;ratioP1;P1;durP2;ratioP2;P2;SDS_P1;SDS_P2;PMS_P1;PMS_P2;Temp;Humidity;BMP_temperature;BMP_pressure;BME280_temperature;BME280_humidity;BME280_pressure;Samples;Min_cycle;Max_cycle;Signal;HPM_P1;HPM_P2
2022/10/09 00:00:51;;;;;;;10.53;7.57;;;9.30;99.90;;;;;;4976698;28;20287;-67
2022/10/09 00:03:17;;;;;;;13.40;7.77;;;9.20;99.90;;;;;;4986259;28;20649;-67
2022/10/09 00:05:43;;;;;;;10.90;7.47;;;9.20;99.90;;;;;;5000680;28;20195;-66
2022/10/09 00:08:10;;;;;;;11.70;7.53;;;9.20;99.90;;;;;;5006546;28;20187;-67
2022/10/09 00:10:43;;;;;;;15.47;7.93;;;9.20;99.90;;;;;;4996115;28;20262;-67
2022/10/09 00:13:09;;;;;;;11.63;7.00;;;9.20;99.90;;;;;;4988213;28;20250;-67
2022/10/09 00:15:43;;;;;;;11.47;7.40;;;9.10;99.90;;;;;;5005654;28;20183;-67
2022/10/09 00:18:11;;;;;;;11.57;6.63;;;9.10;99.90;;;;;;4994099;28;20197;-67
2022/10/09 00:20:42;;;;;;;18.40;8.17;;;9.00;99.90;;;;;;4990490;28;20661;-67
2022/10/09 00:23:10;;;;;;;13.03;7.33;;;9.00;99.90;;;;;;4999818;28;20258;-67
2022/10/09 00:25:36;;;;;;;9.90;7.20;;;9.00;99.90;;;;;;4985069;28;20180;-67
2022/10/09 00:28:03;;;;;;;13.63;7.90;;;9.00;99.90;;;;;;5011380;28;20613;-66
2022/10/09 00:30:29;;;;;;;13.50;8.73;;;9.00;99.90;;;;;;4990188;28;20265;-67
2022/10/09 00:32:54;;;;;;;12.10;7.70;;;8.90;99.90;;;;;;4981616;28;20203;-67
2022/10/09 00:35:21;;;;;;;10.57;7.13;;;8.90;99.90;;;;;;5007228;28;20222;-66
2022/10/09 00:37:47;;;;;;;13.63;7.73;;;8.90;99.90;;;;;;4993438;28;20184;-67
2022/10/09 00:40:14;;;;;;;12.00;7.67;;;8.80;99.90;;;;;;4997172;28;20193;-67
2022/10/09 00:42:40;;;;;;;10.23;6.83;;;8.80;99.90;;;;;;5006380;28;20199;-67
2022/10/09 00:45:12;;;;;;;12.50;7.40;;;8.80;99.90;;;;;;4987991;28;20188;-67
2022/10/09 00:47:49;;;;;;;10.57;7.27;;;8.80;99.90;;;;;;5010663;28;20199;-67
2022/10/09 00:50:15;;;;;;;14.93;7.10;;;8.70;99.90;;;;;;5009081;28;20290;-67
2022/10/09 00:52:42;;;;;;;15.13;7.37;;;8.70;99.90;;;;;;5002169;28;20267;-67
2022/10/09 00:55:09;;;;;;;13.77;8.43;;;8.70;99.90;;;;;;4995642;28;20191;-67
2022/10/09 00:57:37;;;;;;;10.83;6.87;;;8.70;99.90;;;;;;4991719;28;20195;-67
2022/10/09 01:00:09;;;;;;;12.20;6.80;;;8.70;99.90;;;;;;4996835;28;20205;-67
2022/10/09 01:02:35;;;;;;;12.63;8.10;;;8.60;99.90;;;;;;5006976;28;20198;-67
2022/10/09 01:05:00;;;;;;;13.07;8.30;;;8.60;99.90;;;;;;4996076;28;20187;-67
2022/10/09 01:07:36;;;;;;;8.27;6.43;;;8.60;99.90;;;;;;4976595;28;20219;-67
2022/10/09 01:10:23;;;;;;;9.73;7.87;;;8.60;99.90;;;;;;5003323;28;20235;-67
2022/10/09 01:13:14;;;;;;;9.97;7.30;;;8.50;99.90;;;;;;4984992;28;20191;-67
2022/10/09 01:15:58;;;;;;;10.57;7.07;;;8.50;99.90;;;;;;5000515;28;20629;-67
2022/10/09 01:18:42;;;;;;;10.93;7.57;;;8.50;99.90;;;;;;5006198;28;20191;-67
2022/10/09 01:21:17;;;;;;;9.30;7.50;;;8.50;99.90;;;;;;5014839;28;20195;-67
2022/10/09 01:23:48;;;;;;;11.37;6.67;;;8.40;99.90;;;;;;4993712;28;20194;-67
2022/10/09 01:26:17;;;;;;;10.57;7.03;;;8.50;99.90;;;;;;5002853;28;20182;-67
2022/10/09 01:28:47;;;;;;;7.67;6.47;;;8.40;99.90;;;;;;5001162;28;20271;-67
2022/10/09 01:31:15;;;;;;;9.67;6.43;;;8.40;99.90;;;;;;5002596;28;20218;-67
2022/10/09 01:33:41;;;;;;;11.33;6.47;;;8.40;99.90;;;;;;4988186;28;20653;-67
2022/10/09 01:36:08;;;;;;;11.20;7.37;;;8.40;99.90;;;;;;4989403;28;20667;-67
2022/10/09 01:38:36;;;;;;;11.63;6.70;;;8.40;99.90;;;;;;4993086;28;20602;-67
2022/10/09 01:41:04;;;;;;;12.23;7.20;;;8.30;99.90;;;;;;5005219;28;20211;-67
2022/10/09 01:43:30;;;;;;;10.43;7.30;;;8.30;99.90;;;;;;5013907;28;20266;-67
2022/10/09 01:46:17;;;;;;;8.80;6.00;;;8.40;99.90;;;;;;4984129;28;20306;-67
2022/10/09 01:48:47;;;;;;;9.93;7.03;;;8.30;99.90;;;;;;5009530;28;20659;-67
2022/10/09 01:51:15;;;;;;;13.30;7.00;;;8.30;99.90;;;;;;5003955;28;20211;-67
2022/10/09 01:53:42;;;;;;;12.73;7.53;;;8.30;99.90;;;;;;4992774;28;20187;-67
2022/10/09 01:56:17;;;;;;;10.83;7.53;;;8.30;99.90;;;;;;5002020;28;20242;-67
2022/10/09 01:58:56;;;;;;;11.37;6.50;;;8.20;99.90;;;;;;5005316;28;20190;-67
2022/10/09 02:01:30;;;;;;;12.63;6.47;;;8.20;99.90;;;;;;5001887;28;20215;-67
2022/10/09 02:03:58;;;;;;;11.60;7.50;;;8.20;99.90;;;;;;5008007;28;20234;-67
2022/10/09 02:06:26;;;;;;;12.50;7.50;;;8.20;99.90;;;;;;5013554;28;20191;-67
2022/10/09 02:08:54;;;;;;;16.97;9.07;;;8.10;99.90;;;;;;4997300;28;20519;-67
2022/10/09 02:11:20;;;;;;;16.77;8.20;;;8.10;99.90;;;;;;5005187;28;20683;-66
2022/10/09 02:13:48;;;;;;;13.73;7.73;;;8.10;99.90;;;;;;4998110;28;20278;-67
2022/10/09 02:16:40;;;;;;;12.20;7.60;;;8.10;99.90;;;;;;4982307;28;20192;-67
2022/10/09 02:19:14;;;;;;;10.57;7.17;;;8.10;99.90;;;;;;4963081;28;20196;-67
2022/10/09 02:21:58;;;;;;;8.60;7.50;;;8.00;99.90;;;;;;5013757;28;20258;-67
2022/10/09 02:24:25;;;;;;;15.37;7.57;;;8.00;99.90;;;;;;5003039;28;20187;-67
2022/10/09 02:26:55;;;;;;;12.47;7.70;;;8.00;99.90;;;;;;5007353;28;20196;-67
2022/10/09 02:29:21;;;;;;;12.77;8.17;;;7.90;99.90;;;;;;4979133;28;20708;-67
2022/10/09 02:31:46;;;;;;;6.10;5.50;;;8.00;99.90;;;;;;4997682;28;20227;-67
2022/10/09 02:34:16;;;;;;;11.27;6.53;;;8.00;99.90;;;;;;4988973;28;20215;-67
2022/10/09 02:36:42;;;;;;;9.73;6.10;;;8.00;99.90;;;;;;5009164;28;20191;-66
2022/10/09 02:39:08;;;;;;;13.90;6.70;;;8.00;99.90;;;;;;5002265;28;20239;-67
2022/10/09 02:41:34;;;;;;;10.80;5.73;;;7.90;99.90;;;;;;4980176;28;20188;-67
2022/10/09 02:44:01;;;;;;;10.70;6.60;;;7.90;99.90;;;;;;4991171;28;20203;-67
2022/10/09 02:46:27;;;;;;;10.43;6.20;;;7.90;99.90;;;;;;5010859;28;20646;-67
2022/10/09 02:48:52;;;;;;;7.70;5.57;;;7.90;99.90;;;;;;4999345;28;20286;-67
2022/10/09 02:51:18;;;;;;;9.67;5.90;;;7.90;99.90;;;;;;4991044;28;20222;-67
2022/10/09 02:53:44;;;;;;;6.90;5.53;;;7.80;99.90;;;;;;4986828;28;20242;-67
2022/10/09 02:56:10;;;;;;;8.80;5.73;;;7.80;99.90;;;;;;4987828;28;20193;-67
2022/10/09 02:58:36;;;;;;;5.50;4.87;;;7.80;99.90;;;;;;5006043;28;20227;-67
2022/10/09 03:01:03;;;;;;;7.50;5.10;;;7.80;99.90;;;;;;5005664;28;20266;-67
2022/10/09 03:03:29;;;;;;;10.00;5.87;;;7.80;99.90;;;;;;5005443;28;20710;-67
2022/10/09 03:06:17;;;;;;;9.13;5.67;;;7.80;99.90;;;;;;5000532;28;20188;-67
2022/10/09 03:08:46;;;;;;;7.83;5.63;;;7.80;99.90;;;;;;5011065;28;20198;-67
2022/10/09 03:11:14;;;;;;;6.87;6.17;;;7.70;99.90;;;;;;5000523;28;20239;-67
2022/10/09 03:13:40;;;;;;;11.27;6.13;;;7.70;99.90;;;;;;5011757;28;20238;-67
2022/10/09 03:16:10;;;;;;;8.27;5.63;;;7.70;99.90;;;;;;5007240;28;20197;-67
2022/10/09 03:18:37;;;;;;;9.73;6.20;;;7.70;99.90;;;;;;4983590;28;20257;-67
2022/10/09 03:21:11;;;;;;;13.70;6.37;;;7.60;99.90;;;;;;5000740;28;20251;-67
2022/10/09 03:23:37;;;;;;;9.60;5.90;;;7.70;99.90;;;;;;4994237;28;20188;-67
2022/10/09 03:26:06;;;;;;;9.47;5.37;;;7.60;99.90;;;;;;5011764;28;20223;-68
2022/10/09 03:28:35;;;;;;;7.97;6.27;;;7.60;99.90;;;;;;5005665;28;20184;-68
2022/10/09 03:31:00;;;;;;;6.53;5.47;;;7.60;99.90;;;;;;4999498;28;20207;-67
2022/10/09 03:33:26;;;;;;;11.10;6.47;;;7.50;99.90;;;;;;4994372;28;20229;-68
2022/10/09 03:35:52;;;;;;;12.20;6.37;;;7.40;99.90;;;;;;4959142;28;20644;-68
2022/10/09 03:38:17;;;;;;;12.10;7.27;;;7.40;99.90;;;;;;4994102;28;20671;-67
2022/10/09 03:40:44;;;;;;;8.27;5.27;;;7.40;99.90;;;;;;5004494;28;20266;-67
2022/10/09 03:43:09;;;;;;;10.60;6.20;;;7.40;99.90;;;;;;5006423;28;20214;-67
2022/10/09 03:45:39;;;;;;;9.67;6.17;;;7.30;99.90;;;;;;4975717;28;20653;-67
2022/10/09 03:48:05;;;;;;;8.17;5.43;;;7.40;99.90;;;;;;4998235;28;20257;-67
2022/10/09 03:50:31;;;;;;;10.73;6.07;;;7.30;99.90;;;;;;4988498;28;20874;-67
2022/10/09 03:52:56;;;;;;;10.50;6.40;;;7.30;99.90;;;;;;4994734;28;20195;-68
2022/10/09 03:55:22;;;;;;;8.33;6.33;;;7.30;99.90;;;;;;4977379;28;20286;-67
2022/10/09 03:57:48;;;;;;;12.97;6.33;;;7.40;99.90;;;;;;4994068;28;20254;-67
2022/10/09 04:00:14;;;;;;;6.60;5.83;;;7.40;99.90;;;;;;5012150;28;20660;-67
2022/10/09 04:02:39;;;;;;;10.67;5.83;;;7.30;99.90;;;;;;5006423;28;20183;-67
2022/10/09 04:05:06;;;;;;;9.10;5.67;;;7.30;99.90;;;;;;4991284;28;20231;-66
2022/10/09 04:07:31;;;;;;;9.33;5.87;;;7.30;99.90;;;;;;4996202;28;20234;-67
2022/10/09 04:09:57;;;;;;;9.10;6.33;;;7.30;99.90;;;;;;4993542;28;20240;-67
2022/10/09 04:12:23;;;;;;;8.50;6.00;;;7.20;99.90;;;;;;5000302;28;20203;-67
2022/10/09 04:14:48;;;;;;;9.70;5.57;;;7.20;99.90;;;;;;4992790;28;20724;-67
2022/10/09 04:17:14;;;;;;;9.77;5.53;;;7.20;99.90;;;;;;4999088;28;20555;-67
2022/10/09 04:19:39;;;;;;;7.43;5.00;;;7.10;99.90;;;;;;4982583;28;20187;-67
2022/10/09 04:22:05;;;;;;;6.87;6.00;;;7.10;99.90;;;;;;4999035;28;20275;-67
2022/10/09 04:24:31;;;;;;;6.20;4.93;;;7.10;99.90;;;;;;5007339;28;20644;-67
2022/10/09 04:26:56;;;;;;;7.30;5.70;;;7.10;99.90;;;;;;4981118;28;20195;-67
2022/10/09 04:29:22;;;;;;;5.67;5.17;;;7.10;99.90;;;;;;4998100;28;20191;-67
2022/10/09 04:31:48;;;;;;;6.73;5.93;;;7.10;99.90;;;;;;5015991;28;20198;-67
2022/10/09 04:34:14;;;;;;;8.50;6.10;;;7.00;99.90;;;;;;4984722;28;20190;-67
2022/10/09 04:36:40;;;;;;;8.27;5.97;;;7.00;99.90;;;;;;5003966;28;20266;-67
2022/10/09 04:39:05;;;;;;;8.73;5.87;;;7.00;99.90;;;;;;5001826;28;20191;-67
2022/10/09 04:41:31;;;;;;;14.13;6.10;;;7.00;99.90;;;;;;4994897;28;20187;-67
2022/10/09 04:43:57;;;;;;;7.17;5.07;;;7.00;99.90;;;;;;4993939;28;20661;-67
2022/10/09 04:46:23;;;;;;;5.43;4.90;;;7.00;99.90;;;;;;4988859;28;20187;-67
2022/10/09 04:48:49;;;;;;;8.43;6.00;;;6.90;99.90;;;;;;4996936;28;20653;-67
2022/10/09 04:51:16;;;;;;;9.90;6.00;;;7.00;99.90;;;;;;4997981;28;20220;-66
2022/10/09 04:53:43;;;;;;;6.93;4.83;;;6.90;99.90;;;;;;4997239;28;20184;-67
2022/10/09 04:56:11;;;;;;;6.73;5.23;;;7.00;99.90;;;;;;5010614;28;20191;-67
2022/10/09 04:58:41;;;;;;;8.57;4.93;;;6.90;99.90;;;;;;5009312;28;20212;-67
2022/10/09 05:01:13;;;;;;;5.70;4.70;;;6.90;99.90;;;;;;4985019;28;20199;-67
2022/10/09 05:03:39;;;;;;;6.93;5.30;;;6.90;99.90;;;;;;4997343;28;20183;-67
2022/10/09 05:06:07;;;;;;;7.20;5.60;;;6.90;99.90;;;;;;5011040;28;20279;-66
2022/10/09 05:08:33;;;;;;;6.33;5.47;;;6.80;99.90;;;;;;5003086;28;20264;-67
2022/10/09 05:11:07;;;;;;;9.10;5.23;;;6.70;99.90;;;;;;5012012;28;20265;-67
2022/10/09 05:13:35;;;;;;;9.67;5.97;;;6.70;99.90;;;;;;4997351;28;20195;-67
2022/10/09 05:16:06;;;;;;;8.00;6.13;;;6.80;99.90;;;;;;4995202;28;21495;-67
2022/10/09 05:18:33;;;;;;;9.47;7.13;;;6.80;99.90;;;;;;5005249;28;20275;-67
2022/10/09 05:20:58;;;;;;;7.67;5.77;;;6.80;99.90;;;;;;5013971;28;20257;-66
2022/10/09 05:23:24;;;;;;;14.73;6.53;;;7.00;99.90;;;;;;5007488;28;20807;-67
2022/10/09 05:25:58;;;;;;;8.60;6.33;;;6.80;99.90;;;;;;5001497;28;20319;-66
2022/10/09 05:28:24;;;;;;;8.77;6.97;;;6.90;99.90;;;;;;5004683;28;20530;-67
2022/10/09 05:30:50;;;;;;;9.90;6.30;;;6.90;99.90;;;;;;4993575;28;20226;-67
2022/10/09 05:33:16;;;;;;;7.30;5.67;;;6.80;99.90;;;;;;5009324;28;20199;-67
2022/10/09 05:35:55;;;;;;;15.93;8.17;;;6.80;99.90;;;;;;4992270;28;20184;-67
2022/10/09 05:38:22;;;;;;;9.43;6.23;;;6.80;99.90;;;;;;4988056;28;20191;-67
2022/10/09 05:40:55;;;;;;;13.87;6.37;;;6.80;99.90;;;;;;4995401;28;20222;-66
2022/10/09 05:43:25;;;;;;;9.30;5.57;;;6.70;99.90;;;;;;5008375;28;20230;-67
2022/10/09 05:45:51;;;;;;;7.83;5.70;;;6.70;99.90;;;;;;5002194;28;20195;-67
2022/10/09 05:48:17;;;;;;;10.87;6.40;;;6.70;99.90;;;;;;4994848;28;20195;-67
2022/10/09 05:50:43;;;;;;;6.57;5.20;;;6.70;99.90;;;;;;4999011;28;20222;-67
2022/10/09 05:53:09;;;;;;;7.73;6.10;;;6.70;99.90;;;;;;4973470;28;20196;-67
2022/10/09 05:55:34;;;;;;;8.47;6.80;;;6.70;99.90;;;;;;4989305;28;20222;-67
2022/10/09 05:58:00;;;;;;;6.60;5.90;;;6.60;99.90;;;;;;4981974;28;20286;-66
2022/10/09 06:00:25;;;;;;;12.33;7.03;;;6.60;99.90;;;;;;4977888;28;20199;-67
2022/10/09 06:02:51;;;;;;;13.40;6.30;;;6.60;99.90;;;;;;5000431;28;20616;-67
2022/10/09 06:05:17;;;;;;;12.33;6.47;;;6.70;99.90;;;;;;4989455;28;20282;-67
2022/10/09 06:07:45;;;;;;;7.63;6.10;;;6.70;99.90;;;;;;4965055;28;20184;-66
2022/10/09 06:10:11;;;;;;;7.50;5.23;;;6.60;99.90;;;;;;4994877;28;20212;-67
2022/10/09 06:12:36;;;;;;;8.50;5.93;;;6.60;99.90;;;;;;4999569;28;20471;-67
2022/10/09 06:15:03;;;;;;;6.77;5.80;;;6.50;99.90;;;;;;5010816;28;20192;-67
2022/10/09 06:17:28;;;;;;;7.53;6.80;;;6.50;99.90;;;;;;5013194;28;20202;-66
2022/10/09 06:19:54;;;;;;;7.27;5.87;;;6.50;99.90;;;;;;5005348;28;20207;-67
2022/10/09 06:22:19;;;;;;;7.23;5.70;;;6.50;99.90;;;;;;5011250;28;20526;-67
2022/10/09 06:24:45;;;;;;;9.73;6.63;;;6.50;99.90;;;;;;5007265;28;20287;-67
2022/10/09 06:27:12;;;;;;;7.83;6.43;;;6.60;99.90;;;;;;4991539;28;20585;-67
2022/10/09 06:29:38;;;;;;;10.23;5.90;;;6.60;99.90;;;;;;5008661;28;20195;-67
2022/10/09 06:32:03;;;;;;;6.50;5.63;;;6.60;99.90;;;;;;4997277;28;20531;-68
2022/10/09 06:34:29;;;;;;;10.13;5.33;;;6.70;99.90;;;;;;4985723;28;20187;-66
2022/10/09 06:36:55;;;;;;;8.27;6.20;;;6.80;99.90;;;;;;4995249;28;20254;-67
2022/10/09 06:39:21;;;;;;;10.63;6.97;;;6.90;99.90;;;;;;4974220;28;20187;-67
2022/10/09 06:41:47;;;;;;;8.80;6.73;;;7.00;99.90;;;;;;4999147;28;20192;-67
2022/10/09 06:44:15;;;;;;;8.23;6.53;;;6.90;99.90;;;;;;4993885;28;20274;-66
2022/10/09 06:46:41;;;;;;;7.53;6.03;;;7.00;99.90;;;;;;5009099;28;20239;-67
2022/10/09 06:49:09;;;;;;;12.27;7.53;;;7.00;99.90;;;;;;4992701;28;20214;-67
2022/10/09 06:51:35;;;;;;;8.07;6.90;;;6.90;99.90;;;;;;5004287;28;20222;-67
2022/10/09 06:54:06;;;;;;;7.80;6.93;;;6.80;99.90;;;;;;5004402;28;20556;-67
2022/10/09 06:56:32;;;;;;;10.90;7.20;;;6.80;99.90;;;;;;5003607;28;20629;-67
2022/10/09 06:59:03;;;;;;;12.53;6.57;;;6.90;99.90;;;;;;5001563;28;20203;-68
2022/10/09 07:01:30;;;;;;;12.67;7.30;;;7.00;99.90;;;;;;5007058;28;20194;-67
2022/10/09 07:04:10;;;;;;;10.33;6.27;;;7.20;99.90;;;;;;4982142;28;20192;-67
2022/10/09 07:06:39;;;;;;;8.60;6.83;;;8.00;99.90;;;;;;4995661;28;20636;-67
2022/10/09 07:09:07;;;;;;;9.97;7.80;;;9.40;99.90;;;;;;5008905;28;20609;-67
2022/10/09 07:11:39;;;;;;;11.33;7.20;;;11.10;99.90;;;;;;4985422;28;20215;-68
2022/10/09 07:14:07;;;;;;;10.13;7.47;;;12.50;99.90;;;;;;5008102;28;20255;-68
2022/10/09 07:16:36;;;;;;;10.07;7.30;;;14.00;99.90;;;;;;5001779;28;20600;-68
2022/10/09 07:19:06;;;;;;;8.52;6.28;;;14.70;99.90;;;;;;5006191;28;20188;-68
2022/10/09 07:21:33;;;;;;;10.52;5.85;;;15.60;99.90;;;;;;5010157;28;20710;-68
2022/10/09 07:23:59;;;;;;;6.65;5.85;;;16.30;99.90;;;;;;5009613;28;20179;-68
2022/10/09 07:26:27;;;;;;;9.95;5.82;;;17.00;99.90;;;;;;4994594;28;20187;-68
2022/10/09 07:28:53;;;;;;;8.38;5.32;;;17.60;99.90;;;;;;5004790;28;20537;-68
2022/10/09 07:31:19;;;;;;;6.88;5.07;;;18.10;99.90;;;;;;4991057;28;20242;-68
2022/10/09 07:33:53;;;;;;;6.68;4.60;;;18.60;99.90;;;;;;5000537;28;20201;-69
2022/10/09 07:36:19;;;;;;;6.97;4.43;;;19.20;99.90;;;;;;5005666;28;20184;-69
2022/10/09 07:38:54;;;;;;;6.05;4.95;;;19.30;99.90;;;;;;4994432;28;20180;-69
2022/10/09 07:41:21;;;;;;;5.40;4.05;;;19.40;99.90;;;;;;4986129;28;20644;-69
2022/10/09 07:43:47;;;;;;;8.90;4.47;;;19.80;99.90;;;;;;4988348;28;20184;-70
2022/10/09 07:46:15;;;;;;;9.30;5.13;;;20.20;99.90;;;;;;4989056;28;20282;-70
2022/10/09 07:48:40;;;;;;;8.30;5.00;;;20.60;99.90;;;;;;4987058;28;20696;-70
2022/10/09 07:51:27;;;;;;;10.40;6.15;;;20.80;99.90;;;;;;5006663;28;20230;-69
2022/10/09 07:53:55;;;;;;;4.57;4.18;;;20.90;99.90;;;;;;4971485;28;20198;-69
2022/10/09 07:56:22;;;;;;;5.50;4.80;;;21.10;99.90;;;;;;5002438;28;20183;-69
2022/10/09 07:58:56;;;;;;;6.13;4.70;;;21.50;99.90;;;;;;4993857;28;20317;-70
2022/10/09 08:01:23;;;;;;;5.28;4.30;;;21.70;99.90;;;;;;5004739;28;20190;-69
2022/10/09 08:03:49;;;;;;;5.80;4.57;;;21.80;99.90;;;;;;5003386;28;20188;-69
2022/10/09 08:06:16;;;;;;;6.68;4.40;;;21.70;99.90;;;;;;5008756;28;20182;-69
2022/10/09 08:08:42;;;;;;;5.45;4.13;;;21.30;99.90;;;;;;5000446;28;20191;-67
2022/10/09 08:11:14;;;;;;;6.00;4.68;;;19.90;99.90;;;;;;5006594;28;20214;-66
2022/10/09 08:13:41;;;;;;;6.03;4.43;;;18.40;99.90;;;;;;5000591;28;20209;-68
2022/10/09 08:16:06;;;;;;;6.18;4.97;;;17.70;99.90;;;;;;5011005;28;20202;-68
2022/10/09 08:18:32;;;;;;;6.82;4.75;;;17.30;99.90;;;;;;4992953;28;20266;-68
2022/10/09 08:21:05;;;;;;;7.30;4.25;;;16.60;99.90;;;;;;5011285;28;20594;-67
2022/10/09 08:23:31;;;;;;;7.13;4.00;;;15.90;99.90;;;;;;4993879;28;20190;-68
2022/10/09 08:25:56;;;;;;;3.75;3.38;;;15.00;99.90;;;;;;4994072;28;20552;-67
2022/10/09 08:28:22;;;;;;;4.90;4.22;;;14.40;99.90;;;;;;4999084;28;20192;-67
2022/10/09 08:30:48;;;;;;;5.88;3.78;;;14.10;99.90;;;;;;5008950;28;20207;-68
2022/10/09 08:33:14;;;;;;;4.53;3.55;;;14.10;99.90;;;;;;4994245;28;20544;-67
2022/10/09 08:35:40;;;;;;;2.90;2.58;;;13.80;99.90;;;;;;4972866;28;20187;-69
2022/10/09 08:38:05;;;;;;;3.80;3.38;;;13.70;99.90;;;;;;5010500;28;20188;-66
2022/10/09 08:40:58;;;;;;;4.20;2.60;;;13.70;99.90;;;;;;4967876;28;20282;-67
2022/10/09 08:43:31;;;;;;;3.85;3.00;;;13.70;99.90;;;;;;5009545;28;20179;-67
2022/10/09 08:46:03;;;;;;;8.50;4.25;;;13.60;99.90;;;;;;4999992;28;20184;-65
2022/10/09 08:48:33;;;;;;;6.63;2.95;;;13.40;99.90;;;;;;5009862;28;20290;-65
2022/10/09 08:51:00;;;;;;;8.00;3.35;;;13.30;99.90;;;;;;5008238;28;20652;-65
2022/10/09 08:54:08;;;;;;;4.80;2.90;;;13.30;99.90;;;;;;4977669;28;20287;-66
2022/10/09 08:56:34;;;;;;;5.95;3.17;;;13.40;99.90;;;;;;4996984;28;20234;-66
2022/10/09 08:59:01;;;;;;;3.72;3.00;;;13.60;99.90;;;;;;4979759;28;20192;-66
2022/10/09 09:01:37;;;;;;;3.83;3.47;;;13.70;99.90;;;;;;5001936;28;20246;-66
2022/10/09 09:04:30;;;;;;;4.55;3.03;;;13.70;99.90;;;;;;5004937;28;20187;-66
2022/10/09 09:07:00;;;;;;;3.83;3.47;;;13.70;99.90;;;;;;5007431;28;20183;-66
2022/10/09 09:09:49;;;;;;;4.38;3.45;;;13.70;99.90;;;;;;4999859;28;20267;-66
2022/10/09 09:12:23;;;;;;;8.27;4.60;;;13.80;99.90;;;;;;5006837;28;20204;-68
2022/10/09 09:15:13;;;;;;;4.85;3.75;;;13.80;99.90;;;;;;5009803;28;20252;-69
2022/10/09 09:17:53;;;;;;;11.45;4.93;;;13.80;99.90;;;;;;5012553;28;20187;-69
2022/10/09 09:20:26;;;;;;;3.90;3.55;;;14.10;99.90;;;;;;5014343;28;20195;-68
2022/10/09 09:22:52;;;;;;;8.73;3.40;;;14.10;99.90;;;;;;4988189;28;20653;-74
2022/10/09 09:25:19;;;;;;;5.57;3.13;;;14.20;99.90;;;;;;5013266;28;20188;-70
2022/10/09 09:27:46;;;;;;;5.13;3.47;;;14.10;99.90;;;;;;5005930;28;20645;-74
2022/10/09 09:30:11;;;;;;;5.38;3.65;;;14.10;99.90;;;;;;5004695;28;20298;-74
2022/10/09 09:32:56;;;;;;;5.32;3.47;;;14.00;99.90;;;;;;5000914;28;20603;-72
2022/10/09 09:35:49;;;;;;;5.88;3.10;;;14.10;99.90;;;;;;5011713;28;20184;-71
2022/10/09 09:38:15;;;;;;;7.70;2.90;;;14.10;99.90;;;;;;4979524;28;20282;-72
2022/10/09 09:40:42;;;;;;;7.70;3.40;;;14.10;99.90;;;;;;4980113;28;20187;-73
2022/10/09 09:43:18;;;;;;;5.63;3.08;;;14.30;99.90;;;;;;5011577;28;20180;-69
2022/10/09 09:45:44;;;;;;;3.72;2.92;;;14.40;99.90;;;;;;5009981;28;20610;-68
2022/10/09 09:48:19;;;;;;;3.83;2.85;;;14.50;99.90;;;;;;4962587;28;20243;-70
2022/10/09 09:50:49;;;;;;;3.25;2.55;;;14.50;99.90;;;;;;4989609;28;20309;-69
2022/10/09 09:53:20;;;;;;;6.18;2.92;;;14.60;99.90;;;;;;5006374;28;20194;-70
2022/10/09 09:55:52;;;;;;;3.65;2.92;;;14.70;99.90;;;;;;5002989;28;20184;-74
2022/10/09 09:58:19;;;;;;;4.75;3.13;;;14.70;99.90;;;;;;5012515;28;20218;-68
2022/10/09 10:00:56;;;;;;;5.22;3.20;;;14.70;99.90;;;;;;5010449;28;20191;-67
2022/10/09 10:03:23;;;;;;;2.60;2.42;;;14.70;99.90;;;;;;5007466;28;20184;-67
2022/10/09 10:05:49;;;;;;;5.47;3.42;;;14.80;99.90;;;;;;4984301;28;20191;-67
2022/10/09 10:08:26;;;;;;;2.72;2.53;;;14.80;99.90;;;;;;5013742;28;20191;-67
2022/10/09 10:10:54;;;;;;;2.70;2.42;;;14.90;99.90;;;;;;5003941;28;20233;-67
2022/10/09 10:13:26;;;;;;;2.92;2.70;;;15.10;99.90;;;;;;5009918;28;20191;-67
2022/10/09 10:15:54;;;;;;;3.50;3.13;;;15.10;99.90;;;;;;4983190;28;20630;-67
2022/10/09 10:18:24;;;;;;;4.25;2.92;;;15.20;99.90;;;;;;4998884;28;20632;-68
2022/10/09 10:20:52;;;;;;;5.38;3.03;;;15.30;99.90;;;;;;5005575;28;20195;-67
2022/10/09 10:23:29;;;;;;;4.30;3.03;;;15.30;99.90;;;;;;5007292;28;20183;-70
2022/10/09 10:25:56;;;;;;;4.05;3.15;;;15.30;99.90;;;;;;5003666;28;20187;-70
2022/10/09 10:28:45;;;;;;;4.05;2.97;;;15.40;99.90;;;;;;5011265;28;20188;-69
2022/10/09 10:31:21;;;;;;;4.55;2.75;;;15.40;99.90;;;;;;5000918;28;20315;-69
2022/10/09 10:33:53;;;;;;;3.70;2.63;;;15.60;99.90;;;;;;4978390;28;20180;-69
2022/10/09 10:36:19;;;;;;;2.78;2.42;;;15.70;99.90;;;;;;5006325;28;20188;-69
2022/10/09 10:38:57;;;;;;;3.17;2.97;;;15.70;99.90;;;;;;4964226;28;20180;-70
2022/10/09 10:41:35;;;;;;;5.57;2.65;;;15.60;99.90;;;;;;4989373;28;20194;-70
2022/10/09 10:44:34;;;;;;;3.13;2.85;;;15.80;99.90;;;;;;4988957;28;20191;-70
2022/10/09 10:47:06;;;;;;;3.78;2.80;;;15.90;99.90;;;;;;4965797;28;20196;-70
2022/10/09 10:49:32;;;;;;;9.45;3.13;;;15.90;99.90;;;;;;5012909;28;20214;-70
2022/10/09 10:52:09;;;;;;;4.53;2.88;;;16.10;99.90;;;;;;4991942;28;20216;-70
2022/10/09 10:54:49;;;;;;;3.35;2.03;;;16.10;99.90;;;;;;4995029;28;20237;-70
2022/10/09 10:57:24;;;;;;;5.82;3.00;;;16.20;99.90;;;;;;5004893;28;20179;-70
2022/10/09 11:00:06;;;;;;;3.35;2.70;;;16.20;99.90;;;;;;5003482;28;20190;-70
2022/10/09 11:02:39;;;;;;;4.20;3.60;;;16.40;99.90;;;;;;5006851;28;20243;-69
2022/10/09 11:05:04;;;;;;;1.92;1.83;;;16.40;99.90;;;;;;4999864;28;20196;-69
2022/10/09 11:07:53;;;;;;;6.43;2.88;;;16.40;99.90;;;;;;5009778;28;20274;-69
2022/10/09 11:10:54;;;;;;;3.28;2.30;;;16.50;99.90;;;;;;5000381;28;20215;-70
2022/10/09 11:13:32;;;;;;;5.55;2.90;;;16.70;99.90;;;;;;4965948;28;20254;-69
2022/10/09 11:16:06;;;;;;;3.90;2.40;;;16.70;99.90;;;;;;5006474;28;20183;-69
2022/10/09 11:18:56;;;;;;;2.40;2.25;;;16.70;99.90;;;;;;5007544;28;20186;-70
2022/10/09 11:21:34;;;;;;;2.95;2.50;;;16.60;99.90;;;;;;5010528;28;20184;-70
2022/10/09 11:24:26;;;;;;;3.53;2.40;;;16.80;99.90;;;;;;5010798;28;20183;-70
2022/10/09 11:27:07;;;;;;;1.98;1.77;;;16.80;99.90;;;;;;4993691;28;20205;-70
2022/10/09 11:29:42;;;;;;;4.95;2.50;;;16.90;99.90;;;;;;5002990;28;20631;-70
2022/10/09 11:32:26;;;;;;;4.30;2.33;;;16.90;99.90;;;;;;5011372;28;20194;-70
2022/10/09 11:35:04;;;;;;;4.55;1.65;;;17.00;99.90;;;;;;4999382;28;20228;-69
2022/10/09 11:37:34;;;;;;;4.68;2.10;;;17.10;99.90;;;;;;4992690;28;20554;-69
2022/10/09 11:40:17;;;;;;;2.45;1.80;;;17.20;99.90;;;;;;4989826;28;20671;-69
2022/10/09 11:42:53;;;;;;;2.28;1.73;;;17.20;99.90;;;;;;5011904;28;20183;-69
2022/10/09 11:45:43;;;;;;;3.45;1.80;;;17.30;99.90;;;;;;4994497;28;20183;-70
2022/10/09 11:48:17;;;;;;;6.50;3.75;;;17.30;99.90;;;;;;4996788;28;20196;-69
2022/10/09 11:51:14;;;;;;;3.67;1.95;;;17.40;99.90;;;;;;4999002;28;20212;-68
2022/10/09 11:53:41;;;;;;;1.98;1.88;;;17.30;99.90;;;;;;5003211;28;20191;-65
2022/10/09 11:56:25;;;;;;;3.78;2.20;;;17.10;99.90;;;;;;4988390;28;20275;-66
2022/10/09 11:58:59;;;;;;;2.85;2.30;;;17.00;99.90;;;;;;5007910;28;20175;-66
2022/10/09 12:01:32;;;;;;;3.40;2.58;;;17.20;99.90;;;;;;5004699;28;20210;-69
2022/10/09 12:04:20;;;;;;;7.93;2.35;;;17.40;99.90;;;;;;4993794;28;20222;-65
2022/10/09 12:07:00;;;;;;;1.55;1.45;;;17.50;99.90;;;;;;4995310;28;20226;-66
2022/10/09 12:09:35;;;;;;;2.50;1.85;;;17.60;99.90;;;;;;4984148;28;20241;-66
2022/10/09 12:12:20;;;;;;;5.53;2.22;;;17.70;99.90;;;;;;4986066;28;20198;-64
2022/10/09 12:14:49;;;;;;;2.25;1.75;;;17.80;99.90;;;;;;4975700;28;20175;-65
2022/10/09 12:17:37;;;;;;;5.28;2.30;;;17.80;99.90;;;;;;4981567;28;20649;-65
2022/10/09 12:20:17;;;;;;;2.28;1.58;;;17.80;99.90;;;;;;5007714;28;20195;-64
2022/10/09 12:22:47;;;;;;;1.90;1.70;;;17.60;99.90;;;;;;5008109;28;20179;-64
2022/10/09 12:25:24;;;;;;;2.95;1.92;;;17.70;99.90;;;;;;5001996;28;20180;-64
2022/10/09 12:27:53;;;;;;;3.28;1.92;;;17.70;99.90;;;;;;4999595;28;20299;-63
2022/10/09 12:30:21;;;;;;;2.63;1.90;;;17.60;99.90;;;;;;4987512;28;20250;-64
2022/10/09 12:33:08;;;;;;;3.72;2.03;;;17.70;99.90;;;;;;5010136;28;20632;-64
2022/10/09 12:35:37;;;;;;;2.00;1.80;;;17.80;99.90;;;;;;5000746;28;20191;-64
2022/10/09 12:38:23;;;;;;;2.90;2.20;;;17.80;99.90;;;;;;5010340;28;20262;-64
2022/10/09 12:40:50;;;;;;;1.25;1.08;;;17.90;99.90;;;;;;5001850;28;20254;-63
2022/10/09 12:43:19;;;;;;;2.55;1.63;;;17.90;99.90;;;;;;5015260;28;20188;-64
2022/10/09 12:45:47;;;;;;;3.08;1.70;;;18.00;99.90;;;;;;5005207;28;20656;-65
2022/10/09 12:48:17;;;;;;;1.75;1.35;;;17.90;99.90;;;;;;5004411;28;20187;-66
2022/10/09 12:50:43;;;;;;;2.45;1.30;;;18.00;99.90;;;;;;5001405;28;20207;-65
2022/10/09 12:53:16;;;;;;;4.53;2.22;;;18.00;99.90;;;;;;4991570;28;20566;-66
2022/10/09 12:55:54;;;;;;;17.35;2.60;;;18.00;99.90;;;;;;4983704;28;20183;-65
2022/10/09 12:58:29;;;;;;;2.88;1.60;;;18.10;99.90;;;;;;5003196;28;20218;-65
2022/10/09 13:01:00;;;;;;;2.30;1.33;;;18.10;99.90;;;;;;4993316;28;20194;-65
2022/10/09 13:03:35;;;;;;;1.75;1.65;;;18.00;99.90;;;;;;5015091;28;20706;-64
2022/10/09 13:06:06;;;;;;;2.03;1.27;;;17.90;99.90;;;;;;5000875;28;20175;-64
2022/10/09 13:08:36;;;;;;;2.55;1.88;;;18.00;99.90;;;;;;4999505;28;20212;-66